createdAt,value
2023-03-11T00:00:30.191Z,83.60
2023-03-11T00:02:58.760Z,83.90
2023-03-11T00:05:33.730Z,84.10
2023-03-11T00:08:01.131Z,84.40
2023-03-11T00:10:31.691Z,84.20
2023-03-11T00:13:01.727Z,84.30
2023-03-11T00:15:29.154Z,84.60
2023-03-11T00:17:57.333Z,84.40
2023-03-11T00:20:27.156Z,84.40
2023-03-11T00:22:54.308Z,84.40
2023-03-11T00:25:22.031Z,84.50
2023-03-11T00:27:51.205Z,84.50
2023-03-11T00:30:21.521Z,84.70
2023-03-11T00:32:49.357Z,84.90
2023-03-11T00:35:18.104Z,85.00
2023-03-11T00:37:47.969Z,85.00
2023-03-11T00:40:16.444Z,84.90
2023-03-11T00:42:43.560Z,84.80
2023-03-11T00:45:11.408Z,84.90
2023-03-11T00:47:40.526Z,84.80
2023-03-11T00:50:14.130Z,85.10
2023-03-11T00:52:44.191Z,84.80
2023-03-11T00:55:15.576Z,84.40
2023-03-11T00:57:43.082Z,84.10
2023-03-11T01:00:16.573Z,84.10
2023-03-11T01:02:45.996Z,84.00
2023-03-11T01:05:13.065Z,84.10
2023-03-11T01:07:42.904Z,84.30
2023-03-11T01:10:14.894Z,84.30
2023-03-11T01:12:42.065Z,84.10
2023-03-11T01:15:12.136Z,84.30
2023-03-11T01:17:42.069Z,84.40
2023-03-11T01:20:14.836Z,84.40
2023-03-11T01:22:49.153Z,84.30
2023-03-11T01:25:19.650Z,84.50
2023-03-11T01:27:53.462Z,84.70
2023-03-11T01:30:24.448Z,84.80
2023-03-11T01:32:53.909Z,84.50
2023-03-11T01:35:24.526Z,84.50
2023-03-11T01:37:56.261Z,84.70
2023-03-11T01:40:33.700Z,84.50
2023-03-11T01:43:05.697Z,84.60
2023-03-11T01:45:39.443Z,84.70
2023-03-11T01:48:10.569Z,84.40
2023-03-11T01:50:46.598Z,84.40
2023-03-11T01:53:14.014Z,84.30
2023-03-11T01:55:43.820Z,84.60
2023-03-11T01:58:16.408Z,84.70
2023-03-11T02:00:48.148Z,84.60
2023-03-11T02:03:30.954Z,84.70
2023-03-11T02:05:58.405Z,84.40
2023-03-11T02:08:25.380Z,84.50
2023-03-11T02:10:54.914Z,84.40
2023-03-11T02:13:26.646Z,84.40
2023-03-11T02:15:56.131Z,84.70
2023-03-11T02:18:26.738Z,84.30
2023-03-11T02:21:17.996Z,84.60
2023-03-11T02:23:51.022Z,84.70
2023-03-11T02:26:25.079Z,84.30
2023-03-11T02:28:53.015Z,84.40
2023-03-11T02:31:29.855Z,84.50
2023-03-11T02:34:01.783Z,84.40
2023-03-11T02:36:44.627Z,84.30
2023-03-11T02:39:16.998Z,84.50
2023-03-11T02:41:47.416Z,84.50
2023-03-11T02:44:15.081Z,84.60
2023-03-11T02:46:49.758Z,84.30
2023-03-11T02:49:19.221Z,84.20
2023-03-11T02:51:46.222Z,84.30
2023-03-11T02:54:15.799Z,84.10
2023-03-11T02:56:46.419Z,84.00
2023-03-11T02:59:20.345Z,84.10
2023-03-11T03:01:52.551Z,83.60
2023-03-11T03:04:22.371Z,84.10
2023-03-11T03:06:49.559Z,84.00
2023-03-11T03:09:18.756Z,84.20
2023-03-11T03:11:45.749Z,84.00
2023-03-11T03:14:15.095Z,83.80
2023-03-11T03:16:42.307Z,83.90
2023-03-11T03:19:09.329Z,83.80
2023-03-11T03:21:36.558Z,83.90
2023-03-11T03:24:04.193Z,84.00
2023-03-11T03:26:40.474Z,83.60
2023-03-11T03:29:11.145Z,84.00
2023-03-11T03:31:41.808Z,84.00
2023-03-11T03:34:08.999Z,84.00
2023-03-11T03:36:39.188Z,83.90
2023-03-11T03:39:11.247Z,84.00
2023-03-11T03:41:38.257Z,84.10
2023-03-11T03:44:06.654Z,84.00
2023-03-11T03:46:42.111Z,84.20
2023-03-11T03:49:10.012Z,83.80
2023-03-11T03:51:39.651Z,84.30
2023-03-11T03:54:20.696Z,84.40
2023-03-11T03:56:49.973Z,84.00
2023-03-11T03:59:17.177Z,83.80
2023-03-11T04:01:49.859Z,83.70
2023-03-11T04:04:18.573Z,84.10
2023-03-11T04:06:47.610Z,84.10
2023-03-11T04:09:18.505Z,83.90
2023-03-11T04:11:45.986Z,83.90
2023-03-11T04:14:15.103Z,83.80
2023-03-11T04:16:50.125Z,83.70
2023-03-11T04:19:17.239Z,83.90
2023-03-11T04:21:48.923Z,84.10
2023-03-11T04:24:20.127Z,84.10
2023-03-11T04:26:49.855Z,83.90
2023-03-11T04:29:19.931Z,83.90
2023-03-11T04:31:54.979Z,84.00
2023-03-11T04:34:21.972Z,84.00
2023-03-11T04:36:55.090Z,84.00
2023-03-11T04:39:27.458Z,84.30
2023-03-11T04:41:57.538Z,84.20
2023-03-11T04:44:26.275Z,84.40
2023-03-11T04:46:53.318Z,84.30
2023-03-11T04:49:22.500Z,84.20
2023-03-11T04:51:50.982Z,84.20
2023-03-11T04:54:21.088Z,83.80
2023-03-11T04:56:52.856Z,83.30
2023-03-11T04:59:23.831Z,83.50
2023-03-11T05:01:52.158Z,83.90
2023-03-11T05:04:21.959Z,84.10
2023-03-11T05:06:51.274Z,83.70
2023-03-11T05:09:18.938Z,83.00
2023-03-11T05:11:48.539Z,83.00
2023-03-11T05:14:18.428Z,83.00
2023-03-11T05:16:48.062Z,82.60
2023-03-11T05:19:35.570Z,83.40
2023-03-11T05:22:13.824Z,83.30
2023-03-11T05:24:44.124Z,82.70
2023-03-11T05:27:11.569Z,82.70
2023-03-11T05:29:39.754Z,82.70
2023-03-11T05:32:19.262Z,82.50
2023-03-11T05:34:50.172Z,82.30
2023-03-11T05:37:22.911Z,82.80
2023-03-11T05:39:52.306Z,82.60
2023-03-11T05:42:24.913Z,82.80
2023-03-11T05:44:54.450Z,82.80
2023-03-11T05:47:25.251Z,83.00
2023-03-11T05:49:52.882Z,82.90
2023-03-11T05:52:20.759Z,82.90
2023-03-11T05:54:51.706Z,82.70
2023-03-11T05:57:22.710Z,83.00
2023-03-11T05:59:59.029Z,83.00
2023-03-11T06:02:33.870Z,82.90
2023-03-11T06:05:03.403Z,82.70
2023-03-11T06:07:35.603Z,83.00
2023-03-11T06:10:04.220Z,83.10
2023-03-11T06:12:38.981Z,83.00
2023-03-11T06:15:17.185Z,83.20
2023-03-11T06:17:44.759Z,83.10
2023-03-11T06:20:15.032Z,83.40
2023-03-11T06:22:45.376Z,83.10
2023-03-11T06:25:12.971Z,83.20
2023-03-11T06:27:41.717Z,82.70
2023-03-11T06:30:10.301Z,82.90
2023-03-11T06:32:47.622Z,82.80
2023-03-11T06:35:19.394Z,83.20
2023-03-11T06:37:51.903Z,83.30
2023-03-11T06:40:21.597Z,83.60
2023-03-11T06:42:50.968Z,83.20
2023-03-11T06:45:21.901Z,83.20
2023-03-11T06:47:52.235Z,83.20
2023-03-11T06:50:24.068Z,83.30
2023-03-11T06:52:57.353Z,83.40
2023-03-11T06:55:24.341Z,83.70
2023-03-11T06:57:53.672Z,83.90
2023-03-11T07:00:20.713Z,83.90
2023-03-11T07:02:55.624Z,83.90
2023-03-11T07:05:23.584Z,83.60
2023-03-11T07:07:55.758Z,84.00
2023-03-11T07:10:26.394Z,83.70
2023-03-11T07:12:53.419Z,84.00
2023-03-11T07:15:20.385Z,84.10
2023-03-11T07:17:47.403Z,83.20
2023-03-11T07:20:14.962Z,83.20
2023-03-11T07:22:41.932Z,83.00
2023-03-11T07:25:11.505Z,83.20
2023-03-11T07:27:42.998Z,83.20
2023-03-11T07:30:13.509Z,83.20
2023-03-11T07:32:42.741Z,83.10
2023-03-11T07:35:11.978Z,83.60
2023-03-11T07:37:38.887Z,84.10
2023-03-11T07:40:06.372Z,84.10
2023-03-11T07:42:34.898Z,83.80
2023-03-11T07:45:05.481Z,83.30
2023-03-11T07:47:32.427Z,83.40
2023-03-11T07:49:59.440Z,83.70
2023-03-11T07:52:26.408Z,83.50
2023-03-11T07:54:55.688Z,83.30
2023-03-11T07:57:24.832Z,83.30
2023-03-11T07:59:54.346Z,83.60
2023-03-11T08:02:21.361Z,84.10
2023-03-11T08:04:48.404Z,83.70
2023-03-11T08:07:17.626Z,83.20
2023-03-11T08:09:44.570Z,82.30
2023-03-11T08:12:18.208Z,81.50
2023-03-11T08:14:45.138Z,81.20
2023-03-11T08:17:12.237Z,81.20
2023-03-11T08:19:39.161Z,80.90
2023-03-11T08:22:08.376Z,80.90
2023-03-11T08:24:38.382Z,80.50
2023-03-11T08:27:05.406Z,81.30
2023-03-11T08:29:34.580Z,79.40
2023-03-11T08:32:04.827Z,80.90
2023-03-11T08:34:35.201Z,79.90
2023-03-11T08:37:02.607Z,78.50
2023-03-11T08:39:32.046Z,78.00
2023-03-11T08:42:03.140Z,78.10
2023-03-11T08:44:32.425Z,78.70
2023-03-11T08:47:02.501Z,77.80
2023-03-11T08:49:29.711Z,77.10
2023-03-11T08:51:56.705Z,77.60
2023-03-11T08:54:26.125Z,78.50
2023-03-11T08:56:53.051Z,78.60
2023-03-11T08:59:20.129Z,78.70
2023-03-11T09:01:47.090Z,77.50
2023-03-11T09:04:14.097Z,76.40
2023-03-11T09:06:46.478Z,76.10
2023-03-11T09:09:16.396Z,76.30
2023-03-11T09:11:45.525Z,77.10
2023-03-11T09:14:12.439Z,76.30
2023-03-11T09:16:39.366Z,74.30
2023-03-11T09:19:08.649Z,73.40
2023-03-11T09:21:38.080Z,76.00
2023-03-11T09:24:09.971Z,73.80
2023-03-11T09:26:41.537Z,72.10
2023-03-11T09:29:11.051Z,73.60
2023-03-11T09:31:44.879Z,70.90
2023-03-11T09:34:16.705Z,71.90
2023-03-11T09:36:43.975Z,72.50
2023-03-11T09:39:10.881Z,69.30
2023-03-11T09:41:57.813Z,72.80
2023-03-11T09:45:05.642Z,72.30
2023-03-11T09:47:55.669Z,67.90
2023-03-11T09:50:36.034Z,69.30
2023-03-11T09:53:08.824Z,69.90
2023-03-11T09:55:37.428Z,69.20
2023-03-11T09:58:23.121Z,69.40
2023-03-11T10:00:52.732Z,68.60
2023-03-11T10:03:27.242Z,68.90
2023-03-11T10:06:01.944Z,69.70
2023-03-11T10:08:40.709Z,69.20
2023-03-11T10:11:16.298Z,68.50
2023-03-11T10:13:57.096Z,68.90
2023-03-11T10:16:31.810Z,69.30
2023-03-11T10:19:01.583Z,70.10
2023-03-11T10:21:59.562Z,70.20
2023-03-11T10:24:45.793Z,70.10
2023-03-11T10:27:41.881Z,70.70
2023-03-11T10:30:27.809Z,69.70
2023-03-11T10:33:03.639Z,68.90
2023-03-11T10:35:44.739Z,70.00
2023-03-11T10:38:27.207Z,68.20
2023-03-11T10:41:00.037Z,68.40
2023-03-11T10:43:40.207Z,68.40
2023-03-11T10:46:13.490Z,68.40
2023-03-11T10:48:42.693Z,68.50
2023-03-11T10:51:11.855Z,68.00
2023-03-11T10:53:55.247Z,68.30
2023-03-11T10:56:38.491Z,67.50
2023-03-11T10:59:21.576Z,67.70
2023-03-11T11:01:55.801Z,67.30
2023-03-11T11:04:39.646Z,67.30
2023-03-11T11:07:28.193Z,67.20
2023-03-11T11:10:17.293Z,65.70
2023-03-11T11:12:59.522Z,65.30
2023-03-11T11:15:26.519Z,65.40
2023-03-11T11:17:56.569Z,66.30
2023-03-11T11:20:28.949Z,66.10
2023-03-11T11:23:03.551Z,65.00
2023-03-11T11:25:43.077Z,66.40
2023-03-11T11:28:20.139Z,65.30
2023-03-11T11:31:06.591Z,67.10
2023-03-11T11:33:52.826Z,67.60
2023-03-11T11:36:27.771Z,66.20
2023-03-11T11:38:54.809Z,67.00
2023-03-11T11:41:23.465Z,66.40
2023-03-11T11:43:59.022Z,66.40
2023-03-11T11:46:38.323Z,67.60
2023-03-11T11:49:22.397Z,68.00
2023-03-11T11:51:52.130Z,68.30
2023-03-11T11:54:34.305Z,68.50
2023-03-11T11:57:03.735Z,66.20
2023-03-11T11:59:33.115Z,65.30
2023-03-11T12:02:37.697Z,63.60
2023-03-11T12:05:28.777Z,61.80
2023-03-11T12:08:23.823Z,63.80
2023-03-11T12:11:04.279Z,62.70
2023-03-11T12:14:04.453Z,61.00
2023-03-11T12:16:48.650Z,59.50
2023-03-11T12:19:41.624Z,60.90
2023-03-11T12:22:23.088Z,60.80
2023-03-11T12:25:22.047Z,61.50
2023-03-11T12:28:04.215Z,62.30
2023-03-11T12:30:33.799Z,62.20
2023-03-11T12:33:07.100Z,61.80
2023-03-11T12:35:39.159Z,62.70
2023-03-11T12:38:31.237Z,61.60
2023-03-11T12:41:04.772Z,60.10
2023-03-11T12:43:34.031Z,63.40
2023-03-11T12:46:04.502Z,62.10
2023-03-11T12:48:36.455Z,60.50
2023-03-11T12:51:06.465Z,59.10
2023-03-11T12:53:49.242Z,60.10
2023-03-11T12:56:31.335Z,58.50
2023-03-11T12:59:11.316Z,59.50
2023-03-11T13:02:03.494Z,58.10
2023-03-11T13:04:31.717Z,60.00
2023-03-11T13:07:04.273Z,59.10
2023-03-11T13:09:38.733Z,58.20
2023-03-11T13:12:45.913Z,61.60
2023-03-11T13:15:18.854Z,56.20
2023-03-11T13:18:02.093Z,55.40
2023-03-11T13:20:41.539Z,54.40
2023-03-11T13:23:14.626Z,54.20
2023-03-11T13:25:55.804Z,57.90
2023-03-11T13:28:40.112Z,55.90
2023-03-11T13:31:42.256Z,56.50
2023-03-11T13:34:30.588Z,56.60
2023-03-11T13:37:26.819Z,56.10
2023-03-11T13:40:14.105Z,52.20
2023-03-11T13:42:47.088Z,54.50
2023-03-11T13:45:29.940Z,55.20
2023-03-11T13:48:16.228Z,55.50
2023-03-11T13:50:51.877Z,56.50
2023-03-11T13:53:26.094Z,55.60
2023-03-11T13:55:53.097Z,54.90
2023-03-11T13:58:27.209Z,55.30
2023-03-11T14:00:54.401Z,54.70
2023-03-11T14:03:25.543Z,56.30
2023-03-11T14:06:05.986Z,56.70
2023-03-11T14:08:36.954Z,55.10
2023-03-11T14:11:10.410Z,53.60
2023-03-11T14:13:48.198Z,53.30
2023-03-11T14:16:20.126Z,52.30
2023-03-11T14:18:52.931Z,52.50
2023-03-11T14:21:23.988Z,54.80
2023-03-11T14:23:54.739Z,54.30
2023-03-11T14:26:31.073Z,54.60
2023-03-11T14:28:59.762Z,55.60
2023-03-11T14:31:40.415Z,57.30
2023-03-11T14:34:12.589Z,56.70
2023-03-11T14:37:23.255Z,55.10
2023-03-11T14:39:54.580Z,54.30
2023-03-11T14:42:34.873Z,56.00
2023-03-11T14:45:18.058Z,55.20
2023-03-11T14:47:44.960Z,53.10
2023-03-11T14:50:16.916Z,55.40
2023-03-11T14:52:49.102Z,55.90
2023-03-11T14:55:21.520Z,55.50
2023-03-11T14:57:59.872Z,55.40
2023-03-11T15:00:33.629Z,53.90
2023-03-11T15:03:22.016Z,56.00
2023-03-11T15:05:54.421Z,55.80
2023-03-11T15:08:22.699Z,55.50
2023-03-11T15:11:10.750Z,56.30
2023-03-11T15:13:40.605Z,56.50
2023-03-11T15:16:30.707Z,57.00
2023-03-11T15:19:23.036Z,55.40
2023-03-11T15:21:55.303Z,57.40
2023-03-11T15:24:32.168Z,57.80
2023-03-11T15:27:08.894Z,55.70
2023-03-11T15:29:36.240Z,56.70
2023-03-11T15:32:25.223Z,55.40
2023-03-11T15:35:22.528Z,53.90
2023-03-11T15:37:52.477Z,52.70
2023-03-11T15:40:44.463Z,55.80
2023-03-11T15:43:15.304Z,56.70
2023-03-11T15:45:46.801Z,55.70
2023-03-11T15:48:16.231Z,56.50
2023-03-11T15:50:56.890Z,56.10
2023-03-11T15:53:36.768Z,55.90
2023-03-11T15:56:08.279Z,56.40
2023-03-11T15:58:36.681Z,57.80
2023-03-11T16:01:08.496Z,57.00
2023-03-11T16:03:40.828Z,55.80
2023-03-11T16:06:09.889Z,54.80
2023-03-11T16:08:38.977Z,56.80
2023-03-11T16:11:11.185Z,58.00
2023-03-11T16:13:38.201Z,58.10
2023-03-11T16:16:05.634Z,57.20
2023-03-11T16:18:36.333Z,58.70
2023-03-11T16:21:08.540Z,55.30
2023-03-11T16:23:50.157Z,57.80
2023-03-11T16:26:22.963Z,56.40
2023-03-11T16:28:49.958Z,56.30
2023-03-11T16:31:17.028Z,58.10
2023-03-11T16:33:46.149Z,58.00
2023-03-11T16:36:13.113Z,58.50
2023-03-11T16:38:47.395Z,57.80
2023-03-11T16:41:16.806Z,60.00
2023-03-11T16:43:48.526Z,58.70
2023-03-11T16:46:15.562Z,58.50
2023-03-11T16:48:42.568Z,59.70
2023-03-11T16:51:09.539Z,60.00
2023-03-11T16:53:38.573Z,58.80
2023-03-11T16:56:06.063Z,59.80
2023-03-11T16:58:37.868Z,59.40
2023-03-11T17:01:07.272Z,59.20
2023-03-11T17:03:42.501Z,59.60
2023-03-11T17:06:12.246Z,60.30
2023-03-11T17:08:46.152Z,61.20
2023-03-11T17:11:19.778Z,60.40
2023-03-11T17:13:46.741Z,60.30
2023-03-11T17:16:13.729Z,60.60
2023-03-11T17:18:43.066Z,60.90
2023-03-11T17:21:11.472Z,61.70
2023-03-11T17:23:40.693Z,63.10
2023-03-11T17:26:15.712Z,63.50
2023-03-11T17:28:42.897Z,65.50
2023-03-11T17:31:14.843Z,66.10
2023-03-11T17:33:44.618Z,67.80
2023-03-11T17:36:15.996Z,70.60
2023-03-11T17:38:47.100Z,71.70
2023-03-11T17:41:17.242Z,72.90
2023-03-11T17:43:51.367Z,73.30
2023-03-11T17:46:22.561Z,74.60
2023-03-11T17:48:52.092Z,75.60
2023-03-11T17:51:25.787Z,76.10
2023-03-11T17:53:56.412Z,76.00
2023-03-11T17:56:23.627Z,77.30
2023-03-11T17:58:50.809Z,77.50
2023-03-11T18:01:22.171Z,78.70
2023-03-11T18:03:49.601Z,78.70
2023-03-11T18:06:17.934Z,79.00
2023-03-11T18:08:44.864Z,79.20
2023-03-11T18:11:18.593Z,79.00
2023-03-11T18:13:46.191Z,80.00
2023-03-11T18:16:21.586Z,80.20
2023-03-11T18:18:54.488Z,80.50
2023-03-11T18:21:23.315Z,81.10
2023-03-11T18:23:55.324Z,80.80
2023-03-11T18:26:30.396Z,81.40
2023-03-11T18:29:03.476Z,81.70
2023-03-11T18:31:30.722Z,82.00
2023-03-11T18:34:12.228Z,81.90
2023-03-11T18:36:39.475Z,82.10
2023-03-11T18:39:12.570Z,82.30
2023-03-11T18:41:42.768Z,83.10
2023-03-11T18:44:14.825Z,83.30
2023-03-11T18:46:42.551Z,83.50
2023-03-11T18:49:13.028Z,83.20
2023-03-11T18:51:41.086Z,83.80
2023-03-11T18:54:15.226Z,83.70
2023-03-11T18:56:42.225Z,83.70
2023-03-11T18:59:13.569Z,83.70
2023-03-11T19:01:40.564Z,83.80
2023-03-11T19:04:07.532Z,84.20
2023-03-11T19:06:34.556Z,84.50
2023-03-11T19:09:01.691Z,84.30
2023-03-11T19:11:28.629Z,84.70
2023-03-11T19:13:55.639Z,84.10
2023-03-11T19:16:32.080Z,84.30
2023-03-11T19:19:01.616Z,84.30
2023-03-11T19:21:30.922Z,84.70
2023-03-11T19:24:00.515Z,84.70
2023-03-11T19:26:43.288Z,84.90
2023-03-11T19:29:18.044Z,85.20
2023-03-11T19:31:52.158Z,85.40
2023-03-11T19:34:21.442Z,85.40
2023-03-11T19:36:48.483Z,85.30
2023-03-11T19:39:20.121Z,85.40
2023-03-11T19:41:49.175Z,85.60
2023-03-11T19:44:16.325Z,85.80
2023-03-11T19:46:43.303Z,85.70
2023-03-11T19:49:12.515Z,85.60
2023-03-11T19:51:49.592Z,85.90
2023-03-11T19:54:17.683Z,85.80
2023-03-11T19:56:44.931Z,85.80
2023-03-11T19:59:12.079Z,86.10
2023-03-11T20:01:43.831Z,86.20
2023-03-11T20:04:11.224Z,86.30
2023-03-11T20:06:38.435Z,86.10
2023-03-11T20:09:06.913Z,86.40
2023-03-11T20:11:39.166Z,86.50
2023-03-11T20:14:08.504Z,86.40
2023-03-11T20:16:37.837Z,86.30
2023-03-11T20:19:04.899Z,86.50
2023-03-11T20:21:32.255Z,86.60
2023-03-11T20:23:59.230Z,86.60
2023-03-11T20:26:28.413Z,86.80
2023-03-11T20:28:56.150Z,86.90
2023-03-11T20:31:23.929Z,86.80
2023-03-11T20:33:51.163Z,87.00
2023-03-11T20:36:22.722Z,86.80
2023-03-11T20:38:50.509Z,87.00
2023-03-11T20:41:17.559Z,87.20
2023-03-11T20:43:47.035Z,87.20
2023-03-11T20:46:14.085Z,87.40
2023-03-11T20:48:41.211Z,87.40
2023-03-11T20:51:16.539Z,87.60
2023-03-11T20:53:43.728Z,87.70
2023-03-11T20:56:12.935Z,87.60
2023-03-11T20:58:39.961Z,87.60
2023-03-11T21:01:12.311Z,87.60
2023-03-11T21:03:39.501Z,87.60
2023-03-11T21:06:13.753Z,87.70
2023-03-11T21:08:43.188Z,87.70
2023-03-11T21:11:12.214Z,87.70
2023-03-11T21:13:44.890Z,87.50
2023-03-11T21:16:14.512Z,87.50
2023-03-11T21:18:43.439Z,87.60
2023-03-11T21:21:11.829Z,87.60
2023-03-11T21:23:42.107Z,87.80
2023-03-11T21:26:11.584Z,87.70
2023-03-11T21:28:42.358Z,87.60
2023-03-11T21:31:11.247Z,87.60
2023-03-11T21:33:39.194Z,87.60
2023-03-11T21:36:08.881Z,87.70
2023-03-11T21:38:40.798Z,87.80
2023-03-11T21:41:16.855Z,87.80
2023-03-11T21:43:44.154Z,87.80
2023-03-11T21:46:13.291Z,87.80
2023-03-11T21:48:42.555Z,87.90
2023-03-11T21:51:09.596Z,88.00
2023-03-11T21:53:36.881Z,88.20
2023-03-11T21:56:06.580Z,88.00
2023-03-11T21:58:33.693Z,88.00
2023-03-11T22:01:00.937Z,88.00
2023-03-11T22:03:28.192Z,88.10
2023-03-11T22:05:59.337Z,88.10
2023-03-11T22:08:28.795Z,88.10
2023-03-11T22:10:58.244Z,88.10
2023-03-11T22:13:25.295Z,88.10
2023-03-11T22:15:54.861Z,88.00
2023-03-11T22:18:23.979Z,88.20
2023-03-11T22:20:50.900Z,88.20
2023-03-11T22:23:20.053Z,88.20
2023-03-11T22:25:46.998Z,88.30
2023-03-11T22:28:16.438Z,88.40
2023-03-11T22:30:45.618Z,88.40
2023-03-11T22:33:14.680Z,88.60
2023-03-11T22:35:55.136Z,88.60
2023-03-11T22:38:26.737Z,88.60
2023-03-11T22:40:56.404Z,88.60
2023-03-11T22:43:25.552Z,88.70
2023-03-11T22:46:02.143Z,88.90
2023-03-11T22:48:29.289Z,88.90
2023-03-11T22:50:58.518Z,88.80
2023-03-11T22:53:25.495Z,88.90
2023-03-11T22:55:55.072Z,89.00
2023-03-11T22:58:22.118Z,89.10
2023-03-11T23:00:51.581Z,89.00
2023-03-11T23:03:23.212Z,89.00
2023-03-11T23:05:52.521Z,89.00
2023-03-11T23:08:21.949Z,89.10
2023-03-11T23:10:51.389Z,89.20
2023-03-11T23:13:18.517Z,89.30
2023-03-11T23:15:46.184Z,89.50
2023-03-11T23:18:13.408Z,89.60
2023-03-11T23:20:40.994Z,89.60
2023-03-11T23:23:08.608Z,89.50
2023-03-11T23:25:35.818Z,89.40
2023-03-11T23:28:06.452Z,89.40
2023-03-11T23:30:33.459Z,89.30
2023-03-11T23:33:02.868Z,89.30
2023-03-11T23:35:32.578Z,89.40
2023-03-11T23:37:59.829Z,89.50
2023-03-11T23:40:32.104Z,89.40
2023-03-11T23:43:00.500Z,89.40
2023-03-11T23:45:27.525Z,89.50
2023-03-11T23:47:54.495Z,89.80
2023-03-11T23:50:21.409Z,90.00
2023-03-11T23:52:48.388Z,90.00
2023-03-11T23:55:15.330Z,89.80
2023-03-11T23:57:42.289Z,89.60
